Time;durP1;ratioP1;P1;durP2;ratioP2;P2;SDS_P1;SDS_P2;PMS_P1;PMS_P2;Temp;Humidity;BMP_temperature;BMP_pressure;BME280_temperature;BME280_humidity;BME280_pressure;Samples;Min_cycle;Max_cycle;Signal;HPM_P1;HPM_P2
2023/12/28 00:00:49;;;;;;;14.33;6.37;;;;;;;6.62;89.84;63624.53;5072630;28;20189;-55
2023/12/28 00:03:15;;;;;;;14.83;5.80;;;;;;;6.66;89.53;63628.88;5073231;28;20239;-56
2023/12/28 00:05:40;;;;;;;10.00;5.10;;;;;;;6.46;91.45;63609.59;5054639;28;20180;-55
2023/12/28 00:08:06;;;;;;;10.17;5.43;;;;;;;6.49;91.61;63615.34;5054851;28;20209;-56
2023/12/28 00:10:32;;;;;;;10.27;5.40;;;;;;;6.54;89.73;63618.31;5072749;28;20208;-52
2023/12/28 00:12:57;;;;;;;7.87;4.67;;;;;;;6.35;89.62;63597.03;5072400;28;20694;-56
2023/12/28 00:15:23;;;;;;;11.23;4.40;;;;;;;6.24;89.80;63585.59;5072548;28;20521;-55
2023/12/28 00:17:48;;;;;;;6.17;3.53;;;;;;;5.94;92.70;63553.47;5072840;28;20224;-55
2023/12/28 00:20:14;;;;;;;6.33;3.77;;;;;;;5.67;95.08;63526.53;5072467;28;20669;-54
2023/12/28 00:22:39;;;;;;;5.83;3.40;;;;;;;5.48;98.27;63500.28;5054345;28;20715;-54
2023/12/28 00:25:05;;;;;;;5.17;3.47;;;;;;;5.28;100.00;63481.03;5072347;28;20192;-53
2023/12/28 00:27:31;;;;;;;7.07;4.00;;;;;;;5.28;100.00;63481.03;5072574;28;20209;-53
2023/12/28 00:29:56;;;;;;;6.70;3.67;;;;;;;5.15;100.00;63469.91;5072179;28;20227;-53
2023/12/28 00:32:22;;;;;;;8.17;3.70;;;;;;;5.13;100.00;63465.22;5072506;28;20213;-56
2023/12/28 00:34:47;;;;;;;5.13;3.23;;;;;;;5.18;100.00;63470.13;5072273;28;20646;-56
2023/12/28 00:37:13;;;;;;;5.37;3.50;;;;;;;5.03;100.00;63454.34;5072374;28;20662;-54
2023/12/28 00:39:40;;;;;;;5.80;3.37;;;;;;;4.93;100.00;63443.47;5072157;28;20203;-53
2023/12/28 00:42:06;;;;;;;5.73;3.53;;;;;;;4.83;100.00;63433.13;5054149;28;20303;-53
2023/12/28 00:44:32;;;;;;;7.13;3.10;;;;;;;4.94;100.00;63447.59;5072290;28;20725;-53
2023/12/28 00:46:57;;;;;;;6.13;4.43;;;;;;;4.79;100.00;63426.28;5054199;28;20601;-53
2023/12/28 00:49:23;;;;;;;5.67;4.00;;;;;;;4.79;100.00;63428.22;5054159;28;20223;-51
2023/12/28 00:51:48;;;;;;;5.73;3.50;;;;;;;4.96;100.00;63447.28;5071907;28;20220;-52
2023/12/28 00:54:13;;;;;;;8.23;4.60;;;;;;;5.28;100.00;63481.03;5071796;28;20189;-54
2023/12/28 00:56:39;;;;;;;7.43;5.07;;;;;;;5.32;100.00;63485.91;5053752;28;20243;-52
2023/12/28 00:59:05;;;;;;;7.43;4.33;;;;;;;5.26;100.00;63481.88;5071674;28;20573;-52
2023/12/28 01:01:30;;;;;;;6.67;4.13;;;;;;;5.29;100.00;63482.66;5071714;28;20272;-51
2023/12/28 01:03:56;;;;;;;6.00;4.20;;;;;;;5.21;100.00;63470.91;5072078;28;20197;-52
2023/12/28 01:06:22;;;;;;;7.70;4.23;;;;;;;5.15;100.00;63472.41;5071845;28;20219;-53
2023/12/28 01:08:47;;;;;;;5.93;4.40;;;;;;;5.18;100.00;63472.63;5071718;28;20305;-59
2023/12/28 01:11:13;;;;;;;7.37;4.20;;;;;;;5.17;100.00;63469.59;5071682;28;20201;-53
2023/12/28 01:13:38;;;;;;;6.97;3.87;;;;;;;4.84;100.00;63434.22;5071761;28;20682;-53
2023/12/28 01:16:05;;;;;;;7.67;4.27;;;;;;;4.79;100.00;63428.78;5053634;28;20196;-53
2023/12/28 01:18:31;;;;;;;7.93;4.67;;;;;;;4.80;100.00;63432.38;5053358;28;20224;-52
2023/12/28 01:20:56;;;;;;;6.43;3.67;;;;;;;4.92;100.00;63444.88;5071468;28;20199;-53
2023/12/28 01:23:22;;;;;;;9.37;4.97;;;;;;;4.81;100.00;63430.97;5071545;28;20216;-54
2023/12/28 01:25:48;;;;;;;7.33;3.80;;;;;;;4.89;100.00;63439.66;5071470;28;20231;-54
2023/12/28 01:28:13;;;;;;;7.90;4.43;;;;;;;4.79;100.00;63428.22;5071848;28;20277;-53
2023/12/28 01:30:39;;;;;;;5.97;4.23;;;;;;;4.73;100.00;63422.25;5053289;28;20212;-53
2023/12/28 01:33:05;;;;;;;6.03;4.27;;;;;;;4.75;100.00;63424.44;5071638;28;20227;-52
2023/12/28 01:35:31;;;;;;;5.20;4.03;;;;;;;4.74;100.00;63422.81;5053310;28;20200;-54
2023/12/28 01:37:57;;;;;;;7.73;4.07;;;;;;;4.69;100.00;63420.41;5071142;28;20721;-57
2023/12/28 01:40:23;;;;;;;6.10;3.57;;;;;;;4.75;100.00;63424.44;5053632;28;20207;-53
2023/12/28 01:42:48;;;;;;;6.13;3.53;;;;;;;4.70;100.00;63421.50;5071103;28;20651;-54
2023/12/28 01:45:14;;;;;;;5.63;3.43;;;;;;;4.80;100.00;63431.81;5071244;28;20219;-53
2023/12/28 01:47:40;;;;;;;8.30;4.27;;;;;;;4.97;100.00;63445.31;5071331;28;20208;-54
2023/12/28 01:50:06;;;;;;;6.30;3.67;;;;;;;4.88;100.00;63438.03;5071009;28;20319;-53
2023/12/28 01:52:32;;;;;;;4.70;3.70;;;;;;;4.86;100.00;63433.38;5071043;28;20242;-51
2023/12/28 01:54:58;;;;;;;6.73;3.80;;;;;;;4.94;100.00;63442.06;5071138;28;20598;-52
2023/12/28 01:57:24;;;;;;;7.77;3.73;;;;;;;4.84;99.70;63436.72;5053001;28;20560;-52
2023/12/28 01:59:50;;;;;;;4.83;3.87;;;;;;;4.95;99.97;63445.63;5071132;28;20196;-56
2023/12/28 02:02:16;;;;;;;7.47;3.50;;;;;;;4.96;100.00;63447.28;5070907;28;20216;-52
2023/12/28 02:04:41;;;;;;;5.17;3.63;;;;;;;5.04;99.50;63456.00;5053213;28;20185;-55
2023/12/28 02:07:08;;;;;;;5.73;3.77;;;;;;;5.07;99.64;63461.19;5052929;28;20306;-54
2023/12/28 02:09:33;;;;;;;5.33;3.80;;;;;;;5.10;99.62;63460.03;5052966;28;20685;-53
2023/12/28 02:11:59;;;;;;;7.97;4.10;;;;;;;5.29;98.50;63482.66;5070703;28;20231;-53
2023/12/28 02:14:25;;;;;;;9.17;4.10;;;;;;;5.43;96.83;63497.91;5070744;28;20295;-55
2023/12/28 02:17:03;;;;;;;9.70;4.27;;;;;;;5.26;97.59;63478.84;5070787;28;20678;-53
2023/12/28 02:19:43;;;;;;;5.63;4.00;;;;;;;5.21;97.68;63473.97;5054605;28;20192;-54
2023/12/28 02:22:12;;;;;;;6.63;3.63;;;;;;;5.10;97.90;63460.03;5074784;28;20808;-53
2023/12/28 02:24:58;;;;;;;5.97;3.40;;;;;;;5.01;98.26;63452.72;5074220;28;20189;-53
2023/12/28 02:27:24;;;;;;;4.77;2.97;;;;;;;5.03;98.34;63454.34;5074215;28;20221;-60
2023/12/28 02:29:49;;;;;;;7.93;2.60;;;;;;;5.03;98.46;63454.34;5074205;28;20223;-56
2023/12/28 02:32:22;;;;;;;3.90;2.90;;;;;;;4.97;99.20;63448.38;5073659;28;20228;-53
2023/12/28 02:34:53;;;;;;;4.20;2.87;;;;;;;4.92;100.00;63442.38;5073861;28;20574;-53
2023/12/28 02:37:20;;;;;;;5.60;3.53;;;;;;;4.82;100.00;63432.06;5074013;28;20216;-53
2023/12/28 02:39:48;;;;;;;8.60;3.70;;;;;;;4.83;100.00;63430.63;5074078;28;20189;-58
2023/12/28 02:42:14;;;;;;;6.57;3.53;;;;;;;4.86;100.00;63436.41;5074242;28;20601;-53
2023/12/28 02:44:39;;;;;;;5.00;2.93;;;;;;;5.02;100.00;63453.28;5074034;28;20194;-56
2023/12/28 02:47:05;;;;;;;6.07;3.60;;;;;;;5.11;100.00;63466.09;5074036;28;20216;-52
2023/12/28 02:49:31;;;;;;;5.83;3.63;;;;;;;4.98;100.00;63448.91;5055833;28;20216;-52
2023/12/28 02:51:56;;;;;;;4.80;3.63;;;;;;;5.01;100.00;63454.66;5073654;28;20275;-53
2023/12/28 02:54:22;;;;;;;6.37;4.37;;;;;;;5.05;100.00;63456.53;5073899;28;20193;-51
2023/12/28 02:56:47;;;;;;;8.33;4.40;;;;;;;4.93;100.00;63441.53;5073649;28;20235;-53
2023/12/28 02:59:13;;;;;;;9.57;4.53;;;;;;;4.78;100.00;63427.69;5073727;28;20759;-53
2023/12/28 03:01:39;;;;;;;6.43;4.40;;;;;;;4.74;100.00;63423.34;5074176;28;20185;-52
2023/12/28 03:04:05;;;;;;;6.27;3.73;;;;;;;4.75;100.00;63421.94;5073566;28;20303;-54
2023/12/28 03:06:30;;;;;;;7.37;4.50;;;;;;;4.78;100.00;63424.66;5073356;28;20276;-53
2023/12/28 03:08:56;;;;;;;7.30;4.60;;;;;;;4.80;100.00;63429.31;5073416;28;20219;-53
2023/12/28 03:11:22;;;;;;;6.07;4.50;;;;;;;4.97;100.00;63442.81;5073440;28;20196;-53
2023/12/28 03:13:48;;;;;;;8.73;5.83;;;;;;;4.88;100.00;63438.03;5073816;28;20204;-53
2023/12/28 03:16:14;;;;;;;8.67;5.03;;;;;;;4.88;100.00;63438.59;5055488;28;20630;-53
2023/12/28 03:18:39;;;;;;;6.57;4.60;;;;;;;4.79;100.00;63428.78;5073789;28;20266;-52
2023/12/28 03:21:05;;;;;;;5.70;4.27;;;;;;;4.62;100.00;63410.28;5073377;28;20176;-54
2023/12/28 03:23:30;;;;;;;8.13;4.80;;;;;;;4.62;100.00;63407.81;5073769;28;20236;-60
2023/12/28 03:25:56;;;;;;;11.30;5.10;;;;;;;4.64;100.00;63411.91;5072991;28;20653;-53
2023/12/28 03:28:22;;;;;;;7.07;4.90;;;;;;;4.61;100.00;63408.66;5073536;28;20299;-54
2023/12/28 03:30:47;;;;;;;10.10;4.93;;;;;;;4.74;100.00;63423.34;5072028;28;20219;-54
2023/12/28 03:33:12;;;;;;;6.27;4.93;;;;;;;4.78;100.00;63425.22;5055079;28;20234;-52
2023/12/28 03:35:38;;;;;;;7.33;4.90;;;;;;;4.94;100.00;63445.13;5073174;28;20195;-52
2023/12/28 03:38:03;;;;;;;7.30;4.53;;;;;;;4.93;100.00;63443.47;5072989;28;20251;-54
2023/12/28 03:40:29;;;;;;;10.10;4.53;;;;;;;4.72;100.00;63418.13;5072946;28;20230;-54
2023/12/28 03:42:54;;;;;;;6.93;4.63;;;;;;;5.01;100.00;63452.16;5055224;28;20674;-52
2023/12/28 03:45:20;;;;;;;11.20;4.50;;;;;;;4.98;100.00;63451.41;5072689;28;20242;-53
2023/12/28 03:47:45;;;;;;;7.10;4.67;;;;;;;5.03;100.00;63454.91;5072584;28;20217;-53
2023/12/28 03:50:11;;;;;;;7.40;4.10;;;;;;;5.07;100.00;63461.75;5072907;28;20212;-55
2023/12/28 03:52:36;;;;;;;7.80;4.47;;;;;;;4.98;100.00;63449.47;5073065;28;20235;-53
2023/12/28 03:55:02;;;;;;;7.73;4.10;;;;;;;4.99;100.00;63450.53;5072851;28;20258;-53
2023/12/28 03:57:28;;;;;;;6.37;3.93;;;;;;;4.80;100.00;63429.88;5073005;28;20710;-53
2023/12/28 03:59:53;;;;;;;8.20;4.83;;;;;;;4.81;100.00;63430.41;5072806;28;20291;-53
2023/12/28 04:02:19;;;;;;;6.87;4.03;;;;;;;4.74;100.00;63423.34;5072719;28;20228;-52
2023/12/28 04:04:45;;;;;;;6.87;4.20;;;;;;;4.59;100.00;63403.97;5072651;28;20196;-53
2023/12/28 04:07:10;;;;;;;5.30;3.83;;;;;;;4.47;100.00;63393.41;5072732;28;20265;-53
2023/12/28 04:09:36;;;;;;;5.47;3.47;;;;;;;4.46;100.00;63392.34;5072760;28;20219;-57
2023/12/28 04:12:02;;;;;;;7.33;4.20;;;;;;;4.34;100.00;63379.28;5054612;28;20302;-54
2023/12/28 04:14:27;;;;;;;6.80;4.03;;;;;;;4.18;100.00;63362.44;5072716;28;20775;-54
2023/12/28 04:16:52;;;;;;;5.77;4.00;;;;;;;4.09;100.00;63350.69;5054577;28;20291;-53
2023/12/28 04:19:18;;;;;;;5.97;4.33;;;;;;;4.16;100.00;63360.28;5072539;28;20188;-52
2023/12/28 04:21:44;;;;;;;8.43;4.60;;;;;;;4.27;100.00;63372.22;5072302;28;20212;-53
2023/12/28 04:24:10;;;;;;;8.50;4.93;;;;;;;4.17;100.00;63361.34;5072612;28;20326;-53
2023/12/28 04:26:36;;;;;;;10.23;5.03;;;;;;;4.26;100.00;63371.16;5072225;28;20196;-53
2023/12/28 04:29:01;;;;;;;8.43;4.70;;;;;;;4.24;100.00;63372.00;5072380;28;20216;-54
2023/12/28 04:31:27;;;;;;;9.23;4.20;;;;;;;4.25;100.00;63367.56;5072325;28;20191;-52
2023/12/28 04:33:53;;;;;;;10.07;5.00;;;;;;;4.33;100.00;63378.19;5072363;28;20200;-53
2023/12/28 04:36:18;;;;;;;9.30;4.13;;;;;;;4.36;100.00;63381.47;5072129;28;20322;-54
2023/12/28 04:38:44;;;;;;;8.63;4.30;;;;;;;4.11;100.00;63354.81;5072092;28;20215;-54
2023/12/28 04:41:09;;;;;;;6.57;3.90;;;;;;;3.99;100.00;63339.84;5054337;28;20743;-52
2023/12/28 04:43:35;;;;;;;4.70;3.47;;;;;;;3.94;100.00;63336.88;5077666;22;20231;-54
2023/12/28 04:46:04;;;;;;;7.20;3.80;;;;;;;3.97;100.00;63339.59;5072172;28;20229;-53
2023/12/28 04:48:31;;;;;;;6.17;3.70;;;;;;;3.84;100.00;63326.00;5053905;28;20217;-55
2023/12/28 04:50:57;;;;;;;6.97;3.63;;;;;;;3.99;100.00;63341.78;5054276;28;20236;-53
2023/12/28 04:53:22;;;;;;;6.40;2.97;;;;;;;4.03;100.00;63343.63;5071875;28;20215;-53
2023/12/28 04:55:48;;;;;;;5.43;3.47;;;;;;;4.16;100.00;63360.28;5072000;28;20196;-53
2023/12/28 04:58:14;;;;;;;5.60;3.77;;;;;;;4.22;100.00;63366.78;5071868;28;20217;-54
2023/12/28 05:00:40;;;;;;;6.80;3.60;;;;;;;4.33;100.00;63378.75;5071809;28;20201;-54
2023/12/28 05:03:06;;;;;;;7.33;3.50;;;;;;;4.41;100.00;63387.44;5071828;28;20708;-54
2023/12/28 05:05:32;;;;;;;8.93;4.90;;;;;;;4.43;100.00;63389.63;5071683;28;20199;-54
2023/12/28 05:07:58;;;;;;;9.00;4.83;;;;;;;4.47;100.00;63393.41;5071484;28;20604;-52
2023/12/28 05:10:23;;;;;;;8.50;5.10;;;;;;;4.52;100.00;63398.88;5071751;28;20598;-53
2023/12/28 05:12:49;;;;;;;7.40;4.40;;;;;;;4.58;100.00;63402.91;5071725;28;20220;-53
2023/12/28 05:15:15;;;;;;;6.63;4.53;;;;;;;4.61;100.00;63411.69;5053777;28;20192;-53
2023/12/28 05:17:41;;;;;;;10.00;4.93;;;;;;;4.56;100.00;63403.78;5071406;28;20661;-52
2023/12/28 05:20:07;;;;;;;7.07;5.30;;;;;;;4.63;100.00;63405.84;5071406;28;20187;-53
2023/12/28 05:22:33;;;;;;;10.87;5.43;;;;;;;4.49;100.00;63393.09;5071276;28;20248;-53
2023/12/28 05:24:58;;;;;;;6.83;5.00;;;;;;;4.74;100.00;63422.81;5053495;28;20228;-53
2023/12/28 05:27:24;;;;;;;9.50;5.33;;;;;;;4.32;100.00;63377.13;5071456;28;20240;-53
2023/12/28 05:29:50;;;;;;;11.53;5.20;;;;;;;4.40;100.00;63385.81;5071416;28;20235;-54
2023/12/28 05:32:15;;;;;;;10.03;5.60;;;;;;;4.48;100.00;63395.06;5071806;28;20617;-54
2023/12/28 05:34:41;;;;;;;10.77;6.07;;;;;;;4.55;100.00;63402.66;5071475;28;20192;-56
2023/12/28 05:37:06;;;;;;;7.83;4.73;;;;;;;4.32;100.00;63377.66;5071306;28;20302;-53
2023/12/28 05:39:32;;;;;;;6.57;3.77;;;;;;;4.12;100.00;63356.44;5071246;28;20185;-54
2023/12/28 05:41:57;;;;;;;6.63;4.30;;;;;;;4.24;100.00;63367.00;5071157;28;20223;-53
2023/12/28 05:44:23;;;;;;;4.90;3.63;;;;;;;4.15;100.00;63359.72;5071073;28;20223;-53
2023/12/28 05:46:48;;;;;;;6.93;3.73;;;;;;;3.99;100.00;63336.78;5071216;28;20700;-53
2023/12/28 05:49:14;;;;;;;5.67;3.53;;;;;;;4.39;100.00;63385.28;5052966;28;20638;-53
2023/12/28 05:51:40;;;;;;;4.40;3.40;;;;;;;4.46;100.00;63392.91;5071380;28;20192;-53
2023/12/28 05:54:07;;;;;;;4.33;2.90;;;;;;;4.45;100.00;63394.28;5069890;28;20278;-54
2023/12/28 05:56:32;;;;;;;5.97;3.47;;;;;;;4.33;100.00;63378.75;5070932;28;20200;-54
2023/12/28 05:58:58;;;;;;;6.43;3.30;;;;;;;4.16;100.00;63358.31;5052881;28;20222;-53
2023/12/28 06:01:24;;;;;;;8.13;3.60;;;;;;;4.15;100.00;63359.72;5070950;28;20200;-54
2023/12/28 06:03:52;;;;;;;9.43;4.87;;;;;;;3.96;100.00;63336.56;5070827;28;20650;-54
2023/12/28 06:06:18;;;;;;;8.83;4.77;;;;;;;4.25;100.00;63370.03;5071103;28;20193;-54
2023/12/28 06:08:43;;;;;;;10.60;5.30;;;;;;;4.13;100.00;63357.53;5070623;28;20212;-59
2023/12/28 06:11:09;;;;;;;9.50;6.37;;;;;;;4.19;100.00;63361.03;5052920;28;20536;-54
2023/12/28 06:13:34;;;;;;;10.13;5.50;;;;;;;4.28;100.00;63372.78;5070694;28;20214;-53
2023/12/28 06:16:00;;;;;;;12.27;5.77;;;;;;;4.22;100.00;63367.31;5070865;28;20219;-54
2023/12/28 06:18:25;;;;;;;10.77;6.20;;;;;;;4.31;100.00;63379.06;5070553;28;20291;-53
2023/12/28 06:20:51;;;;;;;9.37;5.67;;;;;;;4.06;100.00;63347.44;5070853;28;20736;-52
2023/12/28 06:23:17;;;;;;;9.07;5.30;;;;;;;3.91;100.00;63333.63;5070805;28;20284;-54
2023/12/28 06:25:42;;;;;;;10.63;6.00;;;;;;;4.08;100.00;63352.09;5070669;28;20184;-53
2023/12/28 06:28:08;;;;;;;7.77;5.23;;;;;;;4.30;100.00;63374.94;5070458;28;20227;-53
2023/12/28 06:30:33;;;;;;;12.50;6.07;;;;;;;4.28;100.00;63371.34;5070373;28;20215;-53
2023/12/28 06:33:00;;;;;;;9.63;6.03;;;;;;;4.35;100.00;63380.91;5070370;28;20213;-53
2023/12/28 06:35:25;;;;;;;10.23;7.60;;;;;;;4.36;100.00;63381.47;5052508;28;20279;-53
2023/12/28 06:37:51;;;;;;;13.30;7.43;;;;;;;4.20;100.00;63365.16;5069755;28;20350;-52
2023/12/28 06:40:16;;;;;;;12.53;7.40;;;;;;;4.23;100.00;63368.41;5069534;28;20193;-52
2023/12/28 06:42:43;;;;;;;14.37;8.13;;;;;;;4.25;100.00;63370.59;5069795;28;20698;-54
2023/12/28 06:45:10;;;;;;;20.07;9.23;;;;;;;4.31;100.00;63373.53;5070420;28;20188;-52
2023/12/28 06:47:35;;;;;;;16.53;8.30;;;;;;;4.23;100.00;63367.88;5050911;28;20213;-52
2023/12/28 06:50:01;;;;;;;19.57;9.03;;;;;;;4.20;100.00;63364.63;5051102;28;20803;-53
2023/12/28 06:52:26;;;;;;;19.87;10.00;;;;;;;4.34;100.00;63379.84;5052604;28;20214;-53
2023/12/28 06:54:53;;;;;;;19.60;10.27;;;;;;;4.33;100.00;63380.69;5070566;28;20620;-52
2023/12/28 06:57:18;;;;;;;21.60;11.37;;;;;;;4.35;100.00;63380.38;5069967;28;20243;-51
2023/12/28 06:59:44;;;;;;;21.70;12.40;;;;;;;4.41;100.00;63387.44;5070132;28;20187;-54
2023/12/28 07:02:09;;;;;;;23.93;12.40;;;;;;;4.40;100.00;63383.31;5070492;28;20637;-53
2023/12/28 07:04:35;;;;;;;18.70;9.87;;;;;;;4.43;100.00;63387.13;5070613;28;20267;-53
2023/12/28 07:07:00;;;;;;;14.67;8.50;;;;;;;4.20;100.00;63364.63;5073545;28;20222;-53
2023/12/28 07:09:26;;;;;;;17.07;8.60;;;;;;;4.38;100.00;63384.19;5055568;28;20209;-54
2023/12/28 07:11:51;;;;;;;18.23;10.10;;;;;;;4.56;100.00;63403.22;5073491;28;20212;-54
2023/12/28 07:14:17;;;;;;;16.13;10.20;;;;;;;4.61;100.00;63406.16;5073623;28;20191;-55
2023/12/28 07:16:42;;;;;;;15.80;9.83;;;;;;;4.64;100.00;63409.97;5073450;28;20242;-54
2023/12/28 07:19:08;;;;;;;18.00;9.27;;;;;;;4.85;100.00;63435.31;5073620;28;20198;-55
2023/12/28 07:21:33;;;;;;;23.20;10.40;;;;;;;4.96;100.00;63449.78;5073443;28;20201;-54
2023/12/28 07:23:59;;;;;;;18.17;11.57;;;;;;;5.24;100.00;63477.22;5073466;28;20237;-55
2023/12/28 07:26:25;;;;;;;20.90;10.83;;;;;;;5.33;100.00;63483.97;5055407;28;20189;-53
2023/12/28 07:28:50;;;;;;;19.27;10.27;;;;;;;5.35;100.00;63486.16;5073280;28;20670;-53
2023/12/28 07:31:26;;;;;;;16.30;11.27;;;;;;;5.50;100.00;63503.03;5073286;28;20189;-54
2023/12/28 07:33:51;;;;;;;19.53;11.40;;;;;;;5.76;100.00;63530.78;5055325;28;20688;-53
2023/12/28 07:36:17;;;;;;;19.83;10.77;;;;;;;5.92;100.00;63550.72;5055372;28;20189;-56
2023/12/28 07:38:43;;;;;;;16.77;10.27;;;;;;;6.21;100.00;63579.28;5073160;28;20215;-58
2023/12/28 07:41:09;;;;;;;16.17;11.10;;;;;;;6.54;98.65;63622.75;5073411;28;20346;-54
2023/12/28 07:43:36;;;;;;;16.07;10.27;;;;;;;6.66;98.57;63631.38;5072755;28;20236;-52
2023/12/28 07:46:02;;;;;;;18.03;10.63;;;;;;;6.86;95.96;63652.09;5072086;28;20200;-53
2023/12/28 07:48:30;;;;;;;18.33;11.50;;;;;;;6.97;94.97;63664.63;5054986;28;20244;-53
2023/12/28 07:50:58;;;;;;;17.80;10.60;;;;;;;7.14;93.73;63685.13;5055552;28;20216;-51
2023/12/28 07:53:24;;;;;;;21.70;11.90;;;;;;;7.34;92.36;63704.44;5072709;28;20204;-52
2023/12/28 07:55:49;;;;;;;22.50;11.87;;;;;;;7.37;92.11;63707.72;5073145;28;20203;-53
2023/12/28 07:58:15;;;;;;;23.10;12.60;;;;;;;7.57;89.01;63727.56;5054911;28;20204;-53
2023/12/28 08:00:40;;;;;;;23.27;12.87;;;;;;;7.69;87.51;63742.09;5072869;28;20185;-53
2023/12/28 08:03:06;;;;;;;24.73;13.13;;;;;;;7.69;86.95;63744.59;5054807;28;20224;-52
2023/12/28 08:05:32;;;;;;;18.60;12.43;;;;;;;7.94;85.34;63769.41;5072627;28;20272;-53
2023/12/28 08:07:57;;;;;;;20.20;12.93;;;;;;;8.07;84.15;63784.13;5072677;28;20205;-54
2023/12/28 08:10:22;;;;;;;27.70;13.27;;;;;;;8.32;82.13;63811.44;5072702;28;20246;-55
2023/12/28 08:12:48;;;;;;;25.10;13.57;;;;;;;8.48;81.46;63823.34;5072614;28;20220;-54
2023/12/28 08:15:14;;;;;;;18.07;12.20;;;;;;;8.64;81.18;63843.34;5054691;28;20192;-51
2023/12/28 08:17:39;;;;;;;23.43;14.13;;;;;;;8.93;79.81;63875.00;5071568;28;20756;-53
2023/12/28 08:20:06;;;;;;;21.00;12.57;;;;;;;9.17;77.54;63900.72;5072453;28;20224;-55
2023/12/28 08:22:32;;;;;;;19.37;11.60;;;;;;;9.52;75.51;63938.97;5072359;28;20220;-53
2023/12/28 08:24:57;;;;;;;20.17;12.07;;;;;;;9.55;76.41;63942.25;5072477;28;20583;-53
2023/12/28 08:27:23;;;;;;;20.97;11.43;;;;;;;10.09;72.64;64000.75;5072504;28;20245;-55
2023/12/28 08:29:49;;;;;;;21.90;12.03;;;;;;;10.04;72.56;63995.28;5072335;28;20208;-54
2023/12/28 08:32:14;;;;;;;23.50;12.80;;;;;;;10.07;73.34;64001.63;5072595;28;20221;-53
2023/12/28 08:34:40;;;;;;;24.73;12.33;;;;;;;10.30;71.88;64025.72;5072474;28;20776;-54
2023/12/28 08:37:06;;;;;;;26.70;12.37;;;;;;;10.57;69.92;64055.28;5072078;28;20686;-55
2023/12/28 08:39:38;;;;;;;21.60;13.67;;;;;;;10.71;70.54;64068.06;5072346;28;20281;-60
2023/12/28 08:42:04;;;;;;;18.20;11.57;;;;;;;11.05;67.32;64104.78;5072339;28;20721;-55
2023/12/28 08:44:30;;;;;;;21.00;12.77;;;;;;;11.26;67.04;64130.84;5054243;28;20195;-55
2023/12/28 08:46:56;;;;;;;23.80;11.87;;;;;;;11.47;65.33;64148.25;5072382;28;20213;-54
2023/12/28 08:49:22;;;;;;;22.27;12.63;;;;;;;11.56;65.37;64161.16;5071809;28;20767;-53
2023/12/28 08:51:47;;;;;;;19.17;11.33;;;;;;;11.64;65.22;64166.88;5072175;28;20770;-54
2023/12/28 08:54:14;;;;;;;21.90;11.67;;;;;;;11.94;64.30;64201.75;5072013;28;20188;-54
2023/12/28 08:56:39;;;;;;;25.43;11.50;;;;;;;12.13;63.32;64223.13;5071948;28;20242;-54
2023/12/28 08:59:05;;;;;;;23.50;12.67;;;;;;;12.35;62.47;64244.72;5071992;28;20266;-53
2023/12/28 09:01:31;;;;;;;19.33;13.57;;;;;;;12.63;61.04;64275.41;5072229;28;20290;-57
2023/12/28 09:03:59;;;;;;;25.20;13.27;;;;;;;12.68;60.38;64285.41;5071864;28;20185;-55
2023/12/28 09:06:24;;;;;;;25.57;12.33;;;;;;;12.97;59.95;64312.16;5071676;28;20208;-53
2023/12/28 09:08:52;;;;;;;24.10;12.70;;;;;;;13.00;59.78;64315.47;5071764;28;20181;-52
2023/12/28 09:11:18;;;;;;;16.23;12.00;;;;;;;13.25;58.87;64344.91;5072038;28;20571;-54
2023/12/28 09:13:44;;;;;;;19.83;13.30;;;;;;;13.35;58.46;64355.88;5071462;28;20693;-57
2023/12/28 09:16:11;;;;;;;19.43;11.83;;;;;;;13.34;58.70;64355.31;5071798;28;20193;-55
2023/12/28 09:18:37;;;;;;;24.13;12.87;;;;;;;13.73;57.76;64397.03;5053627;28;20280;-59
2023/12/28 09:21:07;;;;;;;25.37;12.87;;;;;;;13.62;57.37;64382.97;5071765;28;20596;-53
2023/12/28 09:23:33;;;;;;;22.15;12.68;;;;;;;14.03;56.13;64429.97;5036824;28;20204;-55
2023/12/28 09:26:00;;;;;;;19.67;13.60;;;;;;;14.36;54.89;64463.72;5071460;28;20299;-54
2023/12/28 09:28:26;;;;;;;23.15;13.93;;;;;;;14.27;55.56;64453.81;5071428;28;20200;-54
2023/12/28 09:30:51;;;;;;;21.85;14.45;;;;;;;14.17;55.75;64445.34;5071311;28;20217;-53
2023/12/28 09:33:17;;;;;;;24.23;15.05;;;;;;;14.25;53.90;64451.59;5071299;28;20207;-53
2023/12/28 09:35:42;;;;;;;24.93;15.57;;;;;;;14.23;54.86;64449.41;5071301;28;20220;-52
2023/12/28 09:38:08;;;;;;;22.75;14.07;;;;;;;14.31;54.08;64458.22;5053049;28;20698;-55
2023/12/28 09:40:38;;;;;;;23.48;14.80;;;;;;;14.26;54.45;64453.25;5036986;28;20192;-57
2023/12/28 09:43:15;;;;;;;24.83;15.80;;;;;;;14.22;54.66;64448.84;5071210;28;20222;-54
2023/12/28 09:45:41;;;;;;;20.25;14.45;;;;;;;14.37;54.61;64464.81;5071304;28;20561;-52
2023/12/28 09:48:06;;;;;;;26.10;15.48;;;;;;;14.49;54.09;64477.44;5053328;28;20204;-53
2023/12/28 09:50:32;;;;;;;26.77;15.45;;;;;;;15.01;52.45;64535.16;5071041;28;20549;-51
2023/12/28 09:52:58;;;;;;;24.77;15.20;;;;;;;14.93;52.66;64525.81;5070906;28;20215;-54
2023/12/28 09:55:25;;;;;;;25.23;16.10;;;;;;;14.91;52.53;64524.16;5071083;28;20650;-53
2023/12/28 09:57:51;;;;;;;27.17;16.27;;;;;;;15.02;52.54;64535.69;5071065;28;20220;-57
2023/12/28 10:00:17;;;;;;;26.42;17.83;;;;;;;15.06;51.87;64540.66;5070896;28;20189;-55
2023/12/28 10:02:44;;;;;;;29.23;17.02;;;;;;;15.30;51.65;64568.47;5070939;28;20221;-53
2023/12/28 10:05:16;;;;;;;31.95;18.35;;;;;;;15.00;51.86;64531.53;5070920;28;20184;-52
2023/12/28 10:07:43;;;;;;;28.70;17.90;;;;;;;15.39;50.90;64578.91;5070930;28;20705;-53
2023/12/28 10:10:09;;;;;;;27.70;17.92;;;;;;;15.46;51.31;64586.09;5070770;28;20629;-55
2023/12/28 10:12:36;;;;;;;29.05;17.63;;;;;;;15.30;50.81;64565.94;5071169;28;20232;-54
2023/12/28 10:15:02;;;;;;;24.33;17.90;;;;;;;15.29;51.81;64567.91;5070998;28;20638;-54
2023/12/28 10:17:27;;;;;;;22.08;15.38;;;;;;;15.08;51.03;64545.41;5070825;28;20220;-55
2023/12/28 10:19:55;;;;;;;22.05;17.10;;;;;;;14.97;52.16;64535.81;5070727;28;20237;-55
2023/12/28 10:22:21;;;;;;;22.88;16.05;;;;;;;15.12;51.71;64552.31;5052632;28;20733;-53
2023/12/28 10:24:46;;;;;;;23.27;15.48;;;;;;;15.01;74.43;64535.16;5070676;28;20543;-60
2023/12/28 10:27:14;;;;;;;23.55;15.82;;;;;;;15.49;72.14;64586.84;5070589;28;20232;-55
2023/12/28 10:29:39;;;;;;;25.50;17.27;;;;;;;15.95;66.94;64637.47;5052757;28;20208;-57
2023/12/28 10:32:05;;;;;;;27.13;18.30;;;;;;;15.70;57.80;64609.94;5070483;28;20216;-59
2023/12/28 10:34:31;;;;;;;27.80;18.40;;;;;;;15.58;56.07;64597.31;5070895;28;20673;-57
2023/12/28 10:37:05;;;;;;;28.52;17.35;;;;;;;15.28;58.51;64563.72;5070901;28;20212;-58
2023/12/28 10:39:34;;;;;;;27.88;17.42;;;;;;;15.32;57.86;64571.22;5070614;28;20583;-54
2023/12/28 10:42:05;;;;;;;23.75;16.73;;;;;;;15.43;56.29;64583.34;5073934;28;20215;-56
2023/12/28 10:44:38;;;;;;;25.85;17.38;;;;;;;15.35;56.62;64568.91;5055949;28;20197;-56
2023/12/28 10:47:08;;;;;;;25.75;17.25;;;;;;;15.53;55.40;64591.25;5074044;28;20594;-56
2023/12/28 10:49:36;;;;;;;27.98;17.50;;;;;;;15.42;56.06;64581.66;5074046;28;20209;-58
2023/12/28 10:52:06;;;;;;;27.25;17.67;;;;;;;15.46;57.93;64589.19;5073697;28;20216;-59
2023/12/28 10:54:52;;;;;;;30.77;17.92;;;;;;;15.50;58.71;64590.50;5073721;28;20203;-57
2023/12/28 10:57:32;;;;;;;26.85;17.90;;;;;;;15.32;55.64;64566.16;5055935;28;20299;-57
2023/12/28 11:00:11;;;;;;;29.52;18.10;;;;;;;15.04;56.27;64538.47;5073250;28;20230;-54
2023/12/28 11:03:02;;;;;;;25.40;17.35;;;;;;;14.93;61.57;64528.88;5074266;28;20653;-55
2023/12/28 11:05:29;;;;;;;27.15;18.17;;;;;;;15.20;60.11;64554.94;5053555;28;20722;-57
2023/12/28 11:07:58;;;;;;;26.48;17.20;;;;;;;15.25;56.56;64562.97;5053706;28;20209;-58
2023/12/28 11:10:24;;;;;;;26.65;18.10;;;;;;;15.23;59.32;64561.31;5035546;28;20209;-57
2023/12/28 11:12:54;;;;;;;31.45;19.23;;;;;;;14.49;56.54;64477.44;5053416;28;20210;-58
2023/12/28 11:15:19;;;;;;;28.50;18.58;;;;;;;14.42;59.82;64470.31;5053262;28;20659;-54
2023/12/28 11:17:45;;;;;;;25.73;18.60;;;;;;;14.37;61.57;64464.81;5035161;28;20299;-55
2023/12/28 11:20:11;;;;;;;30.02;19.95;;;;;;;14.56;58.72;64487.69;5053378;28;20173;-55
2023/12/28 11:22:38;;;;;;;29.23;18.95;;;;;;;14.47;59.11;64475.25;5053680;28;20337;-58